createdAt,value
2019-05-28T00:00:08.530Z,4.37
2019-05-28T00:02:37.074Z,4.10
2019-05-28T00:05:05.258Z,3.47
2019-05-28T00:07:33.987Z,4.47
2019-05-28T00:10:02.302Z,3.20
2019-05-28T00:12:30.130Z,6.17
2019-05-28T00:14:57.753Z,6.37
2019-05-28T00:17:25.386Z,4.57
2019-05-28T00:19:53.074Z,5.63
2019-05-28T00:22:20.719Z,4.83
2019-05-28T00:24:48.354Z,5.53
2019-05-28T00:27:17.066Z,6.37
2019-05-28T00:29:44.791Z,3.57
2019-05-28T00:32:12.490Z,5.60
2019-05-28T00:34:40.304Z,5.43
2019-05-28T00:37:08.055Z,4.47
2019-05-28T00:39:35.851Z,4.17
2019-05-28T00:42:03.571Z,6.67
2019-05-28T00:44:31.202Z,5.27
2019-05-28T00:46:58.886Z,4.20
2019-05-28T00:49:26.499Z,6.07
2019-05-28T00:51:54.130Z,4.40
2019-05-28T00:54:21.747Z,5.03
2019-05-28T00:56:49.891Z,4.57
2019-05-28T00:59:18.332Z,4.63
2019-05-28T01:01:45.958Z,3.73
2019-05-28T01:04:13.565Z,3.20
2019-05-28T01:06:41.301Z,3.40
2019-05-28T01:09:08.970Z,3.70
2019-05-28T01:11:36.619Z,4.03
2019-05-28T01:14:05.441Z,4.17
2019-05-28T01:16:33.075Z,6.03
2019-05-28T01:19:00.700Z,4.43
2019-05-28T01:21:28.555Z,4.93
2019-05-28T01:23:57.263Z,5.20
2019-05-28T01:26:24.899Z,4.40
2019-05-28T01:28:52.494Z,6.47
2019-05-28T01:31:20.109Z,4.00
2019-05-28T01:33:47.744Z,5.43
2019-05-28T01:36:15.367Z,4.50
2019-05-28T01:38:42.993Z,7.87
2019-05-28T01:41:10.628Z,4.80
2019-05-28T01:43:38.262Z,3.53
2019-05-28T01:46:05.851Z,4.07
2019-05-28T01:48:33.523Z,4.07
2019-05-28T01:51:01.151Z,4.07
2019-05-28T01:53:28.759Z,4.27
2019-05-28T01:55:56.386Z,3.80
2019-05-28T01:58:24.015Z,6.50
2019-05-28T02:00:51.659Z,4.13
2019-05-28T02:03:19.356Z,5.10
2019-05-28T02:05:47.019Z,7.70
2019-05-28T02:08:14.663Z,4.27
2019-05-28T02:10:42.303Z,4.97
2019-05-28T02:13:09.958Z,6.00
2019-05-28T02:15:37.594Z,4.77
2019-05-28T02:18:05.244Z,4.47
2019-05-28T02:20:32.860Z,4.97
2019-05-28T02:23:00.506Z,4.53
2019-05-28T02:25:28.121Z,4.63
2019-05-28T02:27:55.718Z,4.57
2019-05-28T02:30:23.847Z,4.43
2019-05-28T02:32:51.726Z,4.67
2019-05-28T02:35:19.359Z,7.10
2019-05-28T02:37:46.973Z,6.37
2019-05-28T02:40:15.486Z,5.10
2019-05-28T02:42:43.082Z,4.77
2019-05-28T02:45:11.608Z,4.40
2019-05-28T02:47:39.205Z,6.13
2019-05-28T02:50:07.854Z,3.50
2019-05-28T02:52:36.873Z,4.17
2019-05-28T02:55:05.348Z,3.83
2019-05-28T02:57:34.363Z,6.47
2019-05-28T03:00:02.502Z,7.10
2019-05-28T03:02:31.556Z,6.33
2019-05-28T03:05:01.437Z,4.87
2019-05-28T03:07:31.288Z,3.77
2019-05-28T03:10:01.822Z,4.43
2019-05-28T03:12:29.519Z,3.93
2019-05-28T03:14:57.110Z,4.37
2019-05-28T03:17:25.730Z,3.20
2019-05-28T03:19:53.336Z,7.67
2019-05-28T03:22:22.460Z,5.40
2019-05-28T03:24:50.631Z,5.57
2019-05-28T03:27:18.253Z,6.80
2019-05-28T03:29:45.848Z,4.67
2019-05-28T03:32:13.478Z,4.80
2019-05-28T03:34:42.294Z,4.83
2019-05-28T03:37:10.720Z,4.23
2019-05-28T03:39:39.071Z,5.60
2019-05-28T03:42:06.673Z,5.63
2019-05-28T03:44:34.272Z,5.80
2019-05-28T03:47:01.893Z,8.37
2019-05-28T03:49:29.530Z,7.27
2019-05-28T03:51:57.123Z,5.27
2019-05-28T03:54:25.770Z,2.97
2019-05-28T03:56:53.388Z,6.13
2019-05-28T03:59:21.096Z,5.67
2019-05-28T04:01:48.695Z,3.73
2019-05-28T04:04:16.313Z,5.37
2019-05-28T04:06:43.917Z,5.73
2019-05-28T04:09:11.594Z,4.60
2019-05-28T04:11:44.851Z,4.03
2019-05-28T04:14:08.712Z,4.60
2019-05-28T04:16:36.336Z,4.17
2019-05-28T04:19:04.449Z,3.47
2019-05-28T04:21:32.083Z,5.73
2019-05-28T04:23:59.710Z,3.67
2019-05-28T04:26:27.347Z,4.90
2019-05-28T04:28:54.973Z,5.30
2019-05-28T04:31:22.672Z,4.83
2019-05-28T04:33:50.336Z,6.67
2019-05-28T04:36:17.980Z,5.17
2019-05-28T04:38:45.607Z,4.50
2019-05-28T04:41:13.227Z,7.33
2019-05-28T04:43:40.870Z,6.07
2019-05-28T04:46:08.514Z,8.60
2019-05-28T04:48:36.106Z,7.87
2019-05-28T04:51:03.770Z,8.23
2019-05-28T04:53:31.406Z,4.70
2019-05-28T04:55:59.036Z,4.93
2019-05-28T04:58:26.654Z,6.03
2019-05-28T05:00:54.323Z,8.13
2019-05-28T05:03:22.084Z,8.13
2019-05-28T05:05:49.713Z,6.97
2019-05-28T05:08:18.361Z,6.43
2019-05-28T05:10:46.011Z,4.23
2019-05-28T05:13:13.633Z,6.40
2019-05-28T05:15:41.243Z,5.63
2019-05-28T05:18:08.893Z,5.60
2019-05-28T05:20:36.483Z,6.83
2019-05-28T05:23:04.100Z,4.43
2019-05-28T05:25:31.743Z,4.43
2019-05-28T05:27:59.402Z,6.30
2019-05-28T05:30:27.006Z,7.73
2019-05-28T05:32:54.684Z,5.47
2019-05-28T05:35:22.288Z,4.50
2019-05-28T05:37:49.930Z,6.03
2019-05-28T05:40:18.235Z,5.93
2019-05-28T05:42:45.902Z,4.60
2019-05-28T05:45:14.624Z,4.67
2019-05-28T05:47:42.239Z,7.27
2019-05-28T05:50:10.258Z,7.17
2019-05-28T05:52:37.860Z,4.13
2019-05-28T05:55:05.873Z,5.90
2019-05-28T05:57:33.474Z,6.93
2019-05-28T06:00:01.131Z,6.07
2019-05-28T06:02:29.856Z,4.80
2019-05-28T06:04:58.618Z,6.47
2019-05-28T06:07:26.312Z,7.10
2019-05-28T06:09:53.903Z,6.53
2019-05-28T06:12:21.498Z,8.63
2019-05-28T06:14:49.212Z,7.90
2019-05-28T06:17:16.805Z,6.97
2019-05-28T06:19:44.415Z,8.40
2019-05-28T06:22:12.117Z,7.97
2019-05-28T06:24:39.783Z,6.63
2019-05-28T06:27:07.386Z,8.00
2019-05-28T06:29:35.037Z,8.33
2019-05-28T06:32:02.690Z,9.27
2019-05-28T06:34:30.300Z,7.27
2019-05-28T06:36:57.909Z,10.63
2019-05-28T06:39:25.556Z,8.63
2019-05-28T06:41:53.222Z,8.27
2019-05-28T06:44:20.822Z,7.23
2019-05-28T06:46:50.521Z,7.73
2019-05-28T06:49:18.157Z,7.87
2019-05-28T06:51:45.807Z,6.53
2019-05-28T06:54:13.444Z,7.93
2019-05-28T06:56:41.103Z,6.43
2019-05-28T06:59:08.753Z,8.37
2019-05-28T07:01:36.359Z,8.80
2019-05-28T07:04:13.211Z,8.83
2019-05-28T07:06:33.506Z,12.10
2019-05-28T07:09:01.128Z,7.97
2019-05-28T07:11:28.864Z,5.50
2019-05-28T07:13:56.587Z,7.27
2019-05-28T07:16:24.227Z,10.10
2019-05-28T07:18:51.849Z,9.07
2019-05-28T07:21:19.455Z,9.33
2019-05-28T07:23:47.188Z,8.00
2019-05-28T07:26:14.854Z,9.90
2019-05-28T07:28:42.456Z,8.07
2019-05-28T07:31:10.080Z,6.70
2019-05-28T07:33:37.700Z,9.20
2019-05-28T07:36:05.368Z,7.80
2019-05-28T07:38:32.984Z,6.57
2019-05-28T07:41:00.623Z,7.67
2019-05-28T07:43:28.256Z,7.47
2019-05-28T07:45:55.910Z,9.77
2019-05-28T07:48:23.533Z,7.77
2019-05-28T07:50:51.172Z,8.73
2019-05-28T07:53:18.783Z,9.30
2019-05-28T07:55:46.424Z,6.03
2019-05-28T07:58:14.094Z,10.17
2019-05-28T08:00:42.215Z,6.80
2019-05-28T08:03:10.052Z,7.37
2019-05-28T08:05:37.653Z,7.13
2019-05-28T08:08:07.421Z,7.53
2019-05-28T08:10:35.355Z,9.63
2019-05-28T08:13:03.149Z,11.10
2019-05-28T08:15:30.765Z,7.07
2019-05-28T08:17:58.396Z,10.97
2019-05-28T08:20:25.983Z,8.53
2019-05-28T08:22:53.646Z,8.97
2019-05-28T08:25:40.649Z,9.80
2019-05-28T08:27:50.701Z,8.03
2019-05-28T08:30:18.967Z,10.47
2019-05-28T08:32:46.550Z,6.50
2019-05-28T08:35:14.304Z,6.70
2019-05-28T08:37:41.967Z,9.77
2019-05-28T08:40:09.719Z,8.23
2019-05-28T08:42:37.355Z,8.47
2019-05-28T08:45:05.517Z,10.97
2019-05-28T08:47:33.148Z,7.67
2019-05-28T08:50:00.751Z,8.87
2019-05-28T08:52:28.503Z,5.33
2019-05-28T08:54:56.093Z,8.10
2019-05-28T08:57:23.935Z,7.30
2019-05-28T08:59:51.588Z,6.93
2019-05-28T09:02:27.836Z,9.60
2019-05-28T09:04:48.697Z,6.80
2019-05-28T09:07:16.301Z,9.60
2019-05-28T09:09:43.940Z,6.70
2019-05-28T09:12:11.629Z,7.93
2019-05-28T09:14:54.993Z,10.90
2019-05-28T09:17:08.674Z,10.87
2019-05-28T09:19:36.293Z,9.83
2019-05-28T09:22:04.032Z,7.13
2019-05-28T09:24:31.638Z,8.73
2019-05-28T09:26:59.280Z,11.97
2019-05-28T09:29:26.918Z,8.73
2019-05-28T09:31:54.525Z,10.73
2019-05-28T09:34:22.254Z,8.70
2019-05-28T09:36:49.882Z,8.90
2019-05-28T09:39:17.528Z,9.90
2019-05-28T09:41:45.144Z,9.50
2019-05-28T09:44:12.764Z,8.00
2019-05-28T09:46:40.409Z,7.10
2019-05-28T09:49:08.038Z,7.77
2019-05-28T09:51:35.594Z,8.13
2019-05-28T09:54:03.318Z,6.83
2019-05-28T09:56:32.800Z,8.17
2019-05-28T09:59:00.385Z,11.20
2019-05-28T10:01:28.385Z,6.90
2019-05-28T10:03:56.004Z,7.80
2019-05-28T10:06:36.324Z,7.90
2019-05-28T10:08:53.115Z,11.03
2019-05-28T10:11:20.805Z,8.20
2019-05-28T10:13:48.400Z,7.40
2019-05-28T10:16:16.040Z,9.73
2019-05-28T10:18:43.662Z,8.80
2019-05-28T10:21:18.137Z,8.27
2019-05-28T10:23:40.711Z,9.63
2019-05-28T10:26:08.335Z,10.10
2019-05-28T10:28:35.978Z,8.23
2019-05-28T10:31:03.585Z,8.13
2019-05-28T10:33:31.338Z,8.03
2019-05-28T10:35:58.951Z,8.00
2019-05-28T10:38:26.693Z,7.33
2019-05-28T10:40:54.343Z,7.40
2019-05-28T10:43:21.974Z,7.30
2019-05-28T10:45:49.644Z,8.17
2019-05-28T10:48:17.223Z,8.90
2019-05-28T10:50:44.854Z,9.50
2019-05-28T10:53:12.579Z,7.70
2019-05-28T10:55:40.207Z,8.00
2019-05-28T10:58:07.832Z,7.47
2019-05-28T11:00:35.475Z,7.60
2019-05-28T11:03:03.161Z,10.37
2019-05-28T11:05:30.804Z,6.73
2019-05-28T11:07:58.412Z,8.97
2019-05-28T11:10:26.498Z,7.67
2019-05-28T11:12:54.109Z,9.27
2019-05-28T11:15:24.160Z,8.73
2019-05-28T11:17:51.905Z,8.97
2019-05-28T11:20:20.122Z,5.77
2019-05-28T11:22:47.753Z,8.67
2019-05-28T11:25:15.942Z,9.43
2019-05-28T11:27:43.542Z,13.60
2019-05-28T11:30:13.368Z,12.63
2019-05-28T11:32:41.049Z,12.70
2019-05-28T11:35:09.568Z,10.60
2019-05-28T11:37:37.192Z,9.67
2019-05-28T11:40:05.368Z,15.50
2019-05-28T11:42:33.013Z,9.40
2019-05-28T11:45:00.678Z,12.33
2019-05-28T11:47:28.304Z,11.70
2019-05-28T11:49:55.939Z,10.83
2019-05-28T11:52:23.563Z,8.83
2019-05-28T11:54:51.179Z,7.73
2019-05-28T11:57:18.783Z,11.85
2019-05-28T11:59:46.443Z,10.17
2019-05-28T12:02:14.091Z,10.67
2019-05-28T12:04:41.680Z,11.43
2019-05-28T12:07:24.794Z,8.73
2019-05-28T12:09:38.733Z,6.77
2019-05-28T12:12:06.401Z,7.33
2019-05-28T12:14:34.024Z,6.90
2019-05-28T12:17:01.686Z,7.87
2019-05-28T12:19:29.331Z,7.33
2019-05-28T12:21:56.928Z,8.07
2019-05-28T12:24:28.410Z,7.53
2019-05-28T12:26:54.067Z,7.73
2019-05-28T12:29:21.688Z,5.83
2019-05-28T12:31:49.288Z,9.60
2019-05-28T12:34:16.894Z,8.13
2019-05-28T12:36:44.511Z,6.33
2019-05-28T12:39:12.217Z,7.10
2019-05-28T12:41:39.886Z,7.13
2019-05-28T12:44:07.532Z,6.07
2019-05-28T12:46:35.142Z,6.78
2019-05-28T12:49:02.749Z,7.97
2019-05-28T12:51:30.400Z,6.67
2019-05-28T12:53:58.020Z,7.30
2019-05-28T12:56:25.651Z,7.17
2019-05-28T12:58:53.378Z,9.35
2019-05-28T13:01:21.046Z,8.13
2019-05-28T13:03:51.936Z,6.70
2019-05-28T13:06:18.957Z,6.13
2019-05-28T13:08:46.652Z,6.47
2019-05-28T13:11:14.297Z,5.93
2019-05-28T13:13:41.938Z,5.60
2019-05-28T13:16:09.579Z,4.28
2019-05-28T13:18:37.209Z,5.28
2019-05-28T13:21:04.879Z,6.00
2019-05-28T13:23:32.508Z,7.47
2019-05-28T13:26:00.178Z,4.92
2019-05-28T13:28:27.932Z,5.70
2019-05-28T13:30:56.748Z,6.73
2019-05-28T13:33:24.352Z,6.07
2019-05-28T13:35:51.985Z,4.33
2019-05-28T13:38:27.063Z,3.83
2019-05-28T13:40:49.253Z,8.37
2019-05-28T13:43:16.972Z,3.50
2019-05-28T13:45:44.714Z,3.40
2019-05-28T13:48:12.335Z,4.33
2019-05-28T13:50:39.983Z,4.37
2019-05-28T13:53:07.603Z,4.57
2019-05-28T13:55:35.229Z,5.13
2019-05-28T13:58:02.939Z,3.40
2019-05-28T14:00:30.773Z,4.80
2019-05-28T14:02:58.452Z,5.93
2019-05-28T14:05:26.078Z,2.77
2019-05-28T14:07:53.758Z,3.13
2019-05-28T14:10:21.671Z,4.73
2019-05-28T14:12:49.305Z,6.20
2019-05-28T14:15:17.299Z,3.23
2019-05-28T14:17:44.922Z,5.07
2019-05-28T14:20:13.575Z,4.60
2019-05-28T14:22:41.493Z,3.20
2019-05-28T14:25:09.559Z,2.93
2019-05-28T14:27:38.181Z,6.30
2019-05-28T14:30:07.524Z,5.67
2019-05-28T14:32:35.149Z,3.52
2019-05-28T14:35:03.288Z,5.17
2019-05-28T14:37:30.922Z,8.40
2019-05-28T14:39:58.621Z,4.67
2019-05-28T14:42:26.235Z,3.83
2019-05-28T14:44:53.881Z,3.40
2019-05-28T14:47:21.532Z,4.63
2019-05-28T14:49:49.146Z,5.20
2019-05-28T14:52:16.864Z,5.00
2019-05-28T14:54:44.567Z,4.10
2019-05-28T14:57:12.253Z,3.13
2019-05-28T14:59:39.844Z,3.80
2019-05-28T15:02:08.696Z,3.87
2019-05-28T15:04:37.368Z,3.30
2019-05-28T15:07:04.984Z,3.20
2019-05-28T15:09:32.665Z,3.00
2019-05-28T15:12:03.660Z,4.83
2019-05-28T15:14:30.832Z,2.43
2019-05-28T15:16:58.485Z,3.73
2019-05-28T15:19:26.151Z,1.27
2019-05-28T15:21:53.772Z,1.90
2019-05-28T15:24:21.423Z,1.97
2019-05-28T15:26:49.074Z,1.43
2019-05-28T15:29:16.900Z,1.23
2019-05-28T15:31:44.556Z,1.50
2019-05-28T15:34:12.170Z,1.93
2019-05-28T15:36:39.805Z,1.37
2019-05-28T15:39:07.435Z,2.70
2019-05-28T15:41:35.047Z,2.43
2019-05-28T15:44:02.703Z,2.00
2019-05-28T15:46:30.301Z,1.03
2019-05-28T15:48:57.965Z,2.17
2019-05-28T15:51:26.719Z,1.77
2019-05-28T15:53:54.343Z,1.70
2019-05-28T15:56:21.957Z,2.33
2019-05-28T15:58:49.607Z,2.37
2019-05-28T16:01:17.234Z,3.37
2019-05-28T16:03:44.845Z,3.17
2019-05-28T16:06:12.472Z,2.47
2019-05-28T16:08:40.069Z,2.70
2019-05-28T16:11:07.776Z,4.53
2019-05-28T16:13:35.298Z,4.73
2019-05-28T16:16:06.767Z,4.80
2019-05-28T16:18:32.418Z,5.50
2019-05-28T16:21:00.040Z,3.97
2019-05-28T16:23:27.682Z,4.20
2019-05-28T16:25:55.311Z,3.33
2019-05-28T16:28:22.976Z,5.30
2019-05-28T16:30:50.625Z,2.40
2019-05-28T16:33:18.371Z,5.23
2019-05-28T16:35:46.011Z,3.03
2019-05-28T16:38:13.651Z,2.83
2019-05-28T16:40:41.298Z,3.70
2019-05-28T16:43:09.003Z,4.77
2019-05-28T16:45:36.619Z,3.50
2019-05-28T16:48:04.368Z,3.53
2019-05-28T16:50:31.965Z,3.20
2019-05-28T16:52:59.744Z,5.03
2019-05-28T16:55:27.379Z,4.20
2019-05-28T16:57:55.012Z,4.73
2019-05-28T17:00:22.733Z,3.23
2019-05-28T17:02:50.487Z,3.97
2019-05-28T17:05:18.315Z,4.90
2019-05-28T17:07:46.058Z,4.87
2019-05-28T17:10:30.739Z,5.10
2019-05-28T17:12:43.346Z,10.03
2019-05-28T17:15:11.521Z,3.93
2019-05-28T17:17:39.142Z,5.13
2019-05-28T17:20:07.432Z,5.07
2019-05-28T17:22:36.251Z,3.00
2019-05-28T17:25:10.064Z,4.23
2019-05-28T17:27:34.721Z,4.10
2019-05-28T17:30:16.769Z,4.37
2019-05-28T17:32:32.109Z,3.17
2019-05-28T17:34:59.862Z,2.63
2019-05-28T17:37:27.426Z,2.23
2019-05-28T17:39:55.083Z,2.80
2019-05-28T17:42:22.717Z,3.33
2019-05-28T17:44:50.381Z,2.63
2019-05-28T17:47:18.118Z,2.87
2019-05-28T17:49:45.851Z,3.10
2019-05-28T17:52:13.363Z,2.67
2019-05-28T17:54:41.051Z,2.83
2019-05-28T17:57:08.660Z,3.47
2019-05-28T17:59:36.295Z,4.10
2019-05-28T18:02:04.088Z,4.10
2019-05-28T18:04:31.703Z,3.97
2019-05-28T18:07:00.461Z,3.63
2019-05-28T18:09:28.127Z,2.97
2019-05-28T18:11:55.808Z,5.30
2019-05-28T18:14:23.924Z,2.77
2019-05-28T18:16:51.729Z,4.40
2019-05-28T18:19:19.321Z,3.97
2019-05-28T18:21:46.981Z,5.43
2019-05-28T18:24:14.762Z,3.17
2019-05-28T18:26:42.408Z,3.40
2019-05-28T18:29:10.018Z,3.30
2019-05-28T18:31:38.670Z,2.30
2019-05-28T18:34:06.408Z,3.37
2019-05-28T18:36:34.051Z,4.43
2019-05-28T18:39:01.733Z,3.00
2019-05-28T18:41:31.329Z,4.60
2019-05-28T18:44:01.398Z,2.33
2019-05-28T18:46:28.459Z,3.00
2019-05-28T18:48:56.081Z,3.90
2019-05-28T18:51:23.706Z,4.47
2019-05-28T18:53:51.393Z,3.17
2019-05-28T18:56:19.035Z,3.27
2019-05-28T18:58:46.782Z,4.53
2019-05-28T19:01:14.557Z,4.27
2019-05-28T19:03:42.231Z,3.57
2019-05-28T19:06:09.878Z,3.07
2019-05-28T19:08:37.597Z,4.30
2019-05-28T19:11:05.258Z,5.00
2019-05-28T19:13:32.967Z,3.87
2019-05-28T19:16:00.621Z,4.80
2019-05-28T19:18:28.937Z,5.67
2019-05-28T19:20:56.560Z,5.00
2019-05-28T19:23:24.377Z,5.70
2019-05-28T19:25:52.176Z,4.77
2019-05-28T19:28:19.839Z,5.80
2019-05-28T19:30:50.368Z,7.27
2019-05-28T19:33:16.956Z,4.57
2019-05-28T19:35:45.354Z,5.00
2019-05-28T19:38:13.179Z,4.20
2019-05-28T19:40:42.260Z,4.50
2019-05-28T19:43:10.084Z,5.93
2019-05-28T19:45:37.748Z,6.77
2019-05-28T19:48:06.667Z,5.13
2019-05-28T19:50:34.649Z,5.07
2019-05-28T19:53:02.426Z,6.30
2019-05-28T19:55:30.097Z,3.50
2019-05-28T19:57:57.778Z,5.93
2019-05-28T20:00:25.548Z,4.03
2019-05-28T20:02:53.205Z,5.00
2019-05-28T20:05:21.035Z,4.40
2019-05-28T20:07:48.711Z,5.50
2019-05-28T20:10:16.739Z,5.70
2019-05-28T20:12:44.495Z,6.53
2019-05-28T20:15:13.182Z,4.07
2019-05-28T20:17:40.852Z,6.13
2019-05-28T20:20:08.998Z,3.67
2019-05-28T20:22:36.674Z,6.07
2019-05-28T20:25:05.703Z,4.63
2019-05-28T20:27:33.375Z,3.47
2019-05-28T20:30:01.084Z,4.80
2019-05-28T20:32:28.644Z,4.50
2019-05-28T20:34:56.376Z,3.53
2019-05-28T20:37:23.999Z,4.60
2019-05-28T20:39:51.644Z,4.53
2019-05-28T20:42:27.247Z,5.13
2019-05-28T20:44:48.698Z,5.37
2019-05-28T20:47:16.322Z,4.20
2019-05-28T20:49:43.959Z,4.00
2019-05-28T20:52:11.573Z,4.27
2019-05-28T20:54:39.219Z,4.53
2019-05-28T20:57:06.862Z,4.07
2019-05-28T20:59:34.472Z,2.90
2019-05-28T21:02:02.096Z,4.47
2019-05-28T21:04:30.727Z,6.83
2019-05-28T21:06:58.872Z,2.73
2019-05-28T21:09:26.674Z,6.53
2019-05-28T21:11:54.546Z,2.40
2019-05-28T21:14:22.293Z,4.63
2019-05-28T21:16:51.804Z,2.53
2019-05-28T21:19:19.341Z,4.97
2019-05-28T21:21:46.992Z,4.20
2019-05-28T21:24:14.597Z,4.73
2019-05-28T21:26:42.261Z,4.30
2019-05-28T21:29:09.919Z,3.00
2019-05-28T21:31:37.589Z,2.40
2019-05-28T21:34:05.195Z,2.80
2019-05-28T21:36:32.845Z,2.27
2019-05-28T21:39:01.452Z,2.13
2019-05-28T21:41:31.103Z,5.50
2019-05-28T21:43:58.698Z,3.27
2019-05-28T21:46:26.288Z,1.93
2019-05-28T21:48:54.443Z,2.90
2019-05-28T21:51:22.165Z,1.60
2019-05-28T21:53:49.773Z,3.97
2019-05-28T21:56:17.375Z,3.07
2019-05-28T21:58:45.006Z,2.20
2019-05-28T22:01:16.463Z,3.97
2019-05-28T22:03:44.235Z,2.07
2019-05-28T22:06:11.854Z,4.30
2019-05-28T22:08:39.463Z,3.20
2019-05-28T22:11:07.995Z,3.43
2019-05-28T22:13:35.626Z,4.20
2019-05-28T22:16:04.313Z,2.57
2019-05-28T22:18:31.973Z,3.63
2019-05-28T22:21:00.281Z,3.07
2019-05-28T22:23:27.922Z,1.83
2019-05-28T22:25:56.373Z,4.77
2019-05-28T22:28:24.108Z,3.37
2019-05-28T22:30:51.790Z,5.63
2019-05-28T22:33:19.394Z,2.20
2019-05-28T22:35:47.136Z,2.50
2019-05-28T22:38:14.768Z,4.03
2019-05-28T22:40:42.371Z,3.50
2019-05-28T22:43:10.025Z,2.40
2019-05-28T22:45:42.482Z,2.63
2019-05-28T22:48:14.811Z,1.97
2019-05-28T22:50:36.531Z,3.47
2019-05-28T22:53:04.132Z,1.40
2019-05-28T22:55:31.759Z,1.43
2019-05-28T22:58:00.209Z,2.93
2019-05-28T23:00:27.840Z,3.53
2019-05-28T23:02:55.449Z,3.30
2019-05-28T23:05:23.032Z,2.00
2019-05-28T23:07:50.671Z,2.70
2019-05-28T23:10:18.267Z,4.47
2019-05-28T23:12:45.882Z,1.83
2019-05-28T23:15:14.590Z,0.93
2019-05-28T23:17:42.197Z,2.80
2019-05-28T23:20:11.249Z,1.23
2019-05-28T23:22:39.066Z,1.73
2019-05-28T23:25:07.592Z,2.37
2019-05-28T23:27:36.326Z,1.43
2019-05-28T23:30:10.508Z,1.73
2019-05-28T23:32:35.050Z,2.40
2019-05-28T23:35:02.664Z,2.80
2019-05-28T23:37:30.359Z,5.83
2019-05-28T23:39:57.929Z,4.57
2019-05-28T23:42:25.575Z,1.10
2019-05-28T23:44:54.177Z,2.27
2019-05-28T23:47:21.778Z,1.80
2019-05-28T23:49:49.352Z,4.00
2019-05-28T23:52:17.116Z,2.40
2019-05-28T23:54:44.747Z,1.23
2019-05-28T23:57:12.397Z,3.37
2019-05-28T23:59:40.002Z,2.53
